Tiempo atmosférico en la estación meteorológica de Soba, Alto Miera, Cantabria (695 m.)



Fecha
DESCASC
Temp. máxima en grados centígrados (hora)
DESCASC
Temp. mínima en grados centígrados (hora)
DESCASC
Temp. media en grados centígrados
DESCASC
Racha de viento máxima en m/sg (hora)
DESCASC
Velocidad máxima media en intervalos de 10 minutos(hora)
DESCASC
Precipitaciones diarias en mm
DESCASC
Precipitaciones de 00:00 a 06:00 en mm
DESCASC
Precipitaciones de 06:00 a 12:00 en mm
DESCASC
Precipitaciones de 12:00 a 18:00 en mm
DESCASC
Precipitaciones de 18:00 a 24:00 en mm
DESCASC
26-03-2020 -- (--) -- (--) -- -- (--) -- (--) -- 0 -- -- 0
25-03-2020 12.8 (12:40) 2.8 (22:40) 7.8 8.61 (16:40) 5.28 (17:10) 0 0 0 0 0
24-03-2020 16.7 (15:20) 8.9 (00:00) 12.8 13.33 (06:40) 7.22 (07:00) 0 0 0 0 0
23-03-2020 12.4 (15:10) 4.8 (07:10) 8.6 6.11 (23:20) 3.89 (13:40) 0 0 0 0 0
22-03-2020 11.9 (17:10) 4.5 (06:50) 8.2 6.11 (17:50) 4.17 (17:40) 0 0 0 0 0
21-03-2020 17.2 (14:40) 6.7 (00:00) 12 11.11 (08:10) 5.56 (06:50) 0 0 0 0 0
20-03-2020 14.7 (17:10) 12 (00:00) 13.3 13.33 (06:00) 7.78 (12:40) 0 0 0 0 0
19-03-2020 19.3 (13:40) 11.6 (00:00) 15.4 13.61 (22:50) 7.5 (23:00) 0 0 0 0 0
18-03-2020 18.1 (15:30) 7.4 (00:00) 12.8 3.89 (16:20) 2.78 (16:20) 0 0 0 0 0
17-03-2020 10.6 (18:30) 4.4 (00:00) 7.5 10 (18:00) 3.33 (18:30) 5 4.8 0.2 0 0
16-03-2020 5.2 (16:00) 0.2 (00:00) 2.7 12.22 (11:30) 5.83 (11:30) 62.8 4.8 24.6 25.8 7.6
15-03-2020 15.2 (10:20) 2.5 (00:00) 8.8 13.06 (19:10) 5.83 (19:10) 7.8 0 0 0.4 7.4
14-03-2020 13.1 (15:30) 3.2 (00:00) 8.2 4.72 (15:50) 3.33 (16:10) 0 0 0 0 0
13-03-2020 9.9 (16:30) 3.4 (23:00) 6.6 5.56 (14:00) 3.61 (16:10) 1.8 0.8 1 0 0
12-03-2020 10.2 (00:20) 6.5 (00:00) 8.3 6.11 (17:50) 4.17 (17:50) 2.2 0.4 0.2 0.4 1.2
11-03-2020 18.7 (16:30) 6.9 (00:00) 12.8 5 (01:40) 3.61 (01:40) 0 0 0 0 0
10-03-2020 15.6 (14:20) 6.7 (00:00) 11.2 5.83 (06:00) 3.89 (06:40) 0 0 0 0 0
09-03-2020 7.9 (15:20) 4.3 (00:00) 6.1 15.56 (01:00) 6.94 (01:00) 3.2 2.4 0.8 0 0
08-03-2020 14.2 (14:20) 3.2 (00:00) 8.7 13.61 (23:50) 6.39 (23:40) 5.8 0 0 0 5.8
07-03-2020 9.3 (16:10) 3.2 (00:00) 6.3 10 (00:30) 5.56 (01:10) 15.2 8.2 7 0 0
06-03-2020 6.6 (01:30) 0.9 (00:00) 3.7 21.11 (15:40) 10.28 (15:30) 43.2 3 20.4 11.4 8.4
05-03-2020 14.1 (01:50) 4 (00:00) 9.1 20.83 (06:50) 9.72 (04:20) 32.6 0 27.8 4 0.8
04-03-2020 17 (15:20) 7.5 (00:00) 12.3 9.72 (23:50) 4.72 (06:50) 7.8 7.8 0 0 0
03-03-2020 14.5 (11:20) 3.4 (00:00) 9 19.44 (14:20) 11.11 (14:50) 13.4 5.4 3.2 0 4.8
02-03-2020 12.2 (01:30) 0.9 (00:00) 6.5 32.78 (03:30) 10.83 (06:00) 38.8 15.2 11.6 8.8 3.2
01-03-2020 14.5 (14:40) 6.3 (00:00) 10.4 21.39 (22:50) 9.44 (23:59) 0 0 0 0 0
29-02-2020 14.4 (00:00) 5.7 (00:00) 10 21.94 (08:00) 10.28 (06:50) 0.2 0 0 0.2 0
28-02-2020 18 (14:20) 7.1 (00:00) 12.5 14.17 (23:50) 7.5 (21:20) 0 0 0 0 0

Gráficas

Temp. máximas Temp. mínimas Temp. medias Precipitaciones Rachas de viento máximas Velocidades máximas media en intervalos de 10 minutos

Datos horarios

Fecha y hora oficial Temperatura (ºC) Velocidad del viento (km/h) Dirección del viento Racha (km/h) Dirección de racha Precipitación (mm) Presión (hPa) Tendencia (hPa) Humedad (%)
2020-03-28 23:00:00 4.7 4 Sudeste 9 Sur 0 -- -- 78
2020-03-28 22:00:00 5.2 5 Sudeste 11 Sudeste 0 -- -- 79
2020-03-28 21:00:00 5.2 3 Sudeste 8 Sudeste 0 -- -- 79
2020-03-28 20:00:00 6.4 4 Sudeste 8 Este 0 -- -- 77
2020-03-28 19:00:00 9.1 4 Norte 15 Noroeste 0 -- -- 67
2020-03-28 18:00:00 11.6 10 Noroeste 19 Noroeste 0 -- -- 61
2020-03-28 17:00:00 13.2 11 Noroeste 17 Noroeste 0 -- -- 61
2020-03-28 16:00:00 11.6 8 Noroeste 12 Noroeste 0 -- -- 66
2020-03-28 15:00:00 11.6 9 Noroeste 21 Noroeste 0 -- -- 66
2020-03-28 14:00:00 13.2 11 Noroeste 23 Noroeste 0 -- -- 60
2020-03-28 13:00:00 12.6 11 Noroeste 18 Noroeste 0 -- -- 57
2020-03-28 12:00:00 11.8 9 Noroeste 15 Noroeste 0 -- -- 56
2020-03-28 11:00:00 10.5 8 Noroeste 13 Noroeste 0 -- -- 57
2020-03-28 10:00:00 10 0 Calma 5 Noroeste -- -- -- 54
2020-03-28 09:00:00 5.4 0 Calma 6 Sudeste 0 -- -- 67
2020-03-28 08:00:00 4.1 2 Sur 9 Sur 0 -- -- 70
2020-03-28 07:00:00 3.8 3 Sudeste 9 Sudeste 0 -- -- 70
2020-03-28 06:00:00 4.2 4 Sudeste 10 Sur 0 -- -- 67
2020-03-28 05:00:00 4.4 4 Sudeste 10 Este 0 -- -- 67
2020-03-28 04:00:00 4.1 2 Sudeste 7 Sudeste 0 -- -- 70
2020-03-28 03:00:00 3.7 3 Sudeste 6 Este 0 -- -- 73
2020-03-28 02:00:00 3.7 3 Sudeste 9 Este 0 -- -- 74
2020-03-28 01:00:00 3.2 2 Sudeste 6 Sudeste 0 -- -- 77
2020-03-28 00:00:00 3.1 3 Sudeste 8 Sudeste 0 -- -- 78
2020-03-27 23:00:00 2.7 2 Sudeste 4 Sudeste 0 -- -- 83
2020-03-27 22:00:00 3.5 2 Sudeste 7 Sur 0 -- -- 80
2020-03-27 21:00:00 4.2 0 Calma 9 Sudeste 0 -- -- 82
2020-03-27 20:00:00 4.9 3 Sudeste 8 Sudeste 0 -- -- 82
2020-03-27 19:00:00 7.5 4 Norte 7 Noroeste 0 -- -- 73
2020-03-27 18:00:00 9.7 2 Oeste 13 Noroeste 0 -- -- 67
2020-03-27 17:00:00 8.6 8 Noroeste 18 Noroeste 0 -- -- 67
2020-03-27 16:00:00 10 13 Noroeste 24 Noroeste 0 -- -- 63
2020-03-27 15:00:00 11.9 12 Noroeste 21 Noroeste 0 -- -- 58
2020-03-27 14:00:00 11 10 Noroeste 22 Noroeste 0 -- -- 58
2020-03-27 13:00:00 9.9 12 Noroeste 20 Noroeste 0 -- -- 57
2020-03-27 12:00:00 8.8 10 Noroeste 18 Noroeste 0 -- -- 56
2020-03-27 11:00:00 7.2 9 Noroeste 15 Noroeste 0 -- -- 62
2020-03-27 10:00:00 5.3 6 Norte 19 Noroeste 0 -- -- 67
2020-03-27 09:00:00 3.6 7 Sur 24 Este 0 -- -- 68
2020-03-27 08:00:00 2.5 8 Sudeste 17 Sudeste 0 -- -- 74
2020-03-27 07:00:00 -0.4 4 Este 9 Este 0 -- -- 77
2020-03-27 06:00:00 -0.3 4 Sudeste 10 Sur 0 -- -- 76
2020-03-27 05:00:00 -0.3 4 Sudeste 11 Sudeste 0 -- -- 78
2020-03-27 04:00:00 -0.1 4 Sudeste 10 Sudeste 0 -- -- 78
2020-03-27 03:00:00 0.5 3 Sudeste 11 Este 0 -- -- 79
2020-03-27 02:00:00 1.5 2 Sudeste 6 Sudeste 0 -- -- 81
2020-03-27 01:00:00 2.1 2 Sudeste 5 Sudeste 0 -- -- 77
2020-03-27 00:00:00 1.6 4 Sudeste 9 Sur 0 -- -- 76
2020-03-26 23:00:00 0.8 0 Calma 8 Este 0 -- -- 77
2020-03-26 22:00:00 1.6 0 Calma 12 Noroeste 0 -- -- 79
2020-03-26 21:00:00 3 5 Norte 21 Noroeste 0 -- -- 72
2020-03-26 20:00:00 3.4 9 Noroeste 22 Noroeste 0 -- -- 72
2020-03-26 19:00:00 3.8 13 Noroeste 31 Noroeste 0 -- -- 76
2020-03-26 18:00:00 4.4 16 Noroeste 30 Noroeste 0 -- -- 76
2020-03-26 17:00:00 5.1 14 Noroeste 27 Noroeste 0 -- -- 78
2020-03-26 16:00:00 -- -- -- -- -- -- -- -- --
2020-03-26 15:00:00 -- -- -- -- -- -- -- -- --
2020-03-26 14:00:00 -- -- -- -- -- -- -- -- --
2020-03-26 13:00:00 -- -- -- -- -- -- -- -- --
2020-03-26 12:00:00 5.7 17 Noroeste 32 Noroeste 0 -- -- 82
2020-03-26 11:00:00 4.9 18 Noroeste 32 Noroeste 0 -- -- 88
2020-03-26 10:00:00 4.8 16 Noroeste 31 Norte 0 -- -- 89
2020-03-26 09:00:00 4.1 -- -- -- -- -- -- -- --
2020-03-26 08:00:00 4 14 Noroeste 28 Noroeste 0 -- -- 92
2020-03-26 07:00:00 3.8 9 Noroeste 20 Noroeste 0 -- -- 87
2020-03-26 06:00:00 3.9 6 Norte 10 Norte 0 -- -- 86
2020-03-26 05:00:00 3.7 0 Calma 6 Norte 0 -- -- 86
2020-03-26 04:00:00 3.5 0 Calma 4 Sur 0 -- -- 86
2020-03-26 03:00:00 3.6 0 Calma 5 Sudeste 0 -- -- 84
2020-03-26 02:00:00 3.4 3 Sudeste 8 Sudeste 0 -- -- 83
2020-03-26 01:00:00 3.4 0 Calma 6 Nordeste 0 -- -- 82
2020-03-26 00:00:00 4.2 5 Nordeste 13 Nordeste 0 -- -- 81
2020-03-25 23:00:00 3 2 Sudeste 6 Sur 0 -- -- 90
2020-03-25 22:00:00 3.3 3 Este 6 Este 0 -- -- 87
2020-03-25 21:00:00 3.9 2 Sur 14 Nordeste 0 -- -- 85
2020-03-25 20:00:00 5.7 6 Nordeste 15 Noroeste 0 -- -- 80
2020-03-25 19:00:00 7 8 Norte 19 Noroeste 0 -- -- 79
2020-03-25 18:00:00 10.8 12 Noroeste 30 Noroeste 0 -- -- 70
2020-03-25 17:00:00 11.3 16 Noroeste 31 Noroeste 0 -- -- 68
2020-03-25 16:00:00 12.6 10 Norte 25 Noroeste 0 -- -- 63
2020-03-25 15:00:00 12.5 14 Noroeste 27 Noroeste 0 -- -- 65
2020-03-25 14:00:00 12.7 13 Norte 24 Noroeste 0 -- -- 61
2020-03-25 13:00:00 12.6 13 Noroeste 29 Norte 0 -- -- 66
2020-03-25 12:00:00 12.4 13 Noroeste 26 Noroeste 0 -- -- 57
2020-03-25 11:00:00 11.9 10 Noroeste 20 Noroeste 0 -- -- 58
2020-03-25 10:00:00 10.9 0 Calma 7 Este 0 -- -- 67
2020-03-25 09:00:00 6.7 3 Sudeste 8 Sur 0 -- -- 79
2020-03-25 08:00:00 6.3 2 Sudeste 10 Sudeste 0 -- -- 82
2020-03-25 07:00:00 7.1 6 Sudeste 13 Sudeste 0 -- -- 82
2020-03-25 06:00:00 6.8 3 Sudeste 12 Sudeste 0 -- -- 82
2020-03-25 05:00:00 7.3 6 Sudeste 13 Sudeste 0 -- -- 76
2020-03-25 04:00:00 7.3 7 Sudeste 12 Sudeste 0 -- -- 66
2020-03-25 03:00:00 7.2 6 Sudeste 10 Sudeste 0 -- -- 67
2020-03-25 02:00:00 8.6 5 Sudeste 21 Sudeste 0 -- -- 68
2020-03-25 01:00:00 9.3 10 Sudeste 21 Sudeste 0 -- -- 71
2020-03-25 00:00:00 10.3 11 Sudeste 25 Sudeste 0 -- -- 65
2020-03-24 23:00:00 10.9 16 Sudeste 31 Sudeste 0 -- -- 61
2020-03-24 22:00:00 11 15 Sudeste 30 Sudeste 0 -- -- 56
2020-03-24 21:00:00 11.3 12 Sudeste 30 Sudeste 0 -- -- 53
2020-03-24 20:00:00 11.5 12 Sudeste 35 Sudeste 0 -- -- 60
2020-03-24 19:00:00 12.5 15 Sudeste 37 Este 0 -- -- 64
2020-03-24 18:00:00 14.4 14 Sudeste 29 Este 0 -- -- 63
2020-03-24 17:00:00 15.3 9 Sudeste 23 Sudeste 0 -- -- 57
2020-03-24 16:00:00 15.7 8 Este 20 Sudeste 0 -- -- 53
2020-03-24 15:00:00 16.1 7 Este 19 Sudeste 0 -- -- 54
2020-03-24 14:00:00 15.6 7 Sudeste 23 Sur 0 -- -- 54
2020-03-24 13:00:00 15.5 5 Sur 23 Sur 0 -- -- 55
2020-03-24 12:00:00 14.1 6 Sur 18 Sudoeste 0 -- -- 57
2020-03-24 11:00:00 14 10 Sur 27 Sur 0 -- -- 56
2020-03-24 10:00:00 12.4 14 Sur 31 Sudoeste 0 -- -- 62
2020-03-24 09:00:00 10 17 Sur 34 Sudeste 0 -- -- 73
2020-03-24 08:00:00 9.6 18 Sudeste 44 Sudeste 0 -- -- 74
2020-03-24 07:00:00 9.4 26 Sudeste 48 Este 0 -- -- 76
2020-03-24 06:00:00 9.9 17 Sudeste 44 Este 0 -- -- 74
2020-03-24 05:00:00 9.8 17 Sudeste 37 Sudeste 0 -- -- 75
2020-03-24 04:00:00 9.9 14 Sudeste 27 Este 0 -- -- 74
2020-03-24 03:00:00 9.6 14 Sudeste 30 Sur 0 -- -- 76
2020-03-24 02:00:00 9.5 7 Sudeste 29 Sur 0 -- -- 78
2020-03-24 01:00:00 9.8 12 Sudeste 32 Sur 0 -- -- 77
2020-03-24 00:00:00 8.9 6 Sur 22 Noroeste 0 -- -- 84
2020-03-23 23:00:00 7.7 7 Oeste 14 Sudoeste 0 -- -- 97
2020-03-23 22:00:00 8.1 0 Calma 5 Noroeste 0 -- -- 97
2020-03-23 21:00:00 8.7 0 Calma 13 Noroeste 0 -- -- 94
2020-03-23 20:00:00 9.6 4 Noroeste 19 Sudeste 0 -- -- 87
2020-03-23 19:00:00 10.1 0 Calma 10 Noroeste 0 -- -- 89
2020-03-23 18:00:00 10.5 9 Norte 15 Noroeste 0 -- -- 88
2020-03-23 17:00:00 11.8 10 Noroeste 21 Noroeste 0 -- -- 83
2020-03-23 16:00:00 12 12 Noroeste 19 Noroeste 0 -- -- 83
2020-03-23 15:00:00 11.9 10 Noroeste 18 Noroeste 0 -- -- 81
2020-03-23 14:00:00 11.9 14 Noroeste 21 Noroeste 0 -- -- 79
2020-03-23 13:00:00 11.3 10 Noroeste 17 Noroeste 0 -- -- 79
2020-03-23 12:00:00 10.9 8 Noroeste 13 Noroeste 0 -- -- 81
2020-03-23 11:00:00 9.8 3 Norte 8 Noroeste 0 -- -- 83
2020-03-23 10:00:00 7.9 4 Noroeste 6 Noroeste 0 -- -- 91
2020-03-23 09:00:00 7 2 Noroeste 8 Sudeste 0 -- -- 88
2020-03-23 08:00:00 6.2 0 Calma 7 Sudeste 0 -- -- 91
2020-03-23 07:00:00 4.9 2 Sudeste 6 Este 0 -- -- 89
2020-03-23 06:00:00 5.3 3 Este 9 Este 0 -- -- 88
2020-03-23 05:00:00 5.5 3 Sur 10 Sudeste 0 -- -- 90
2020-03-23 04:00:00 6.1 3 Sudeste 10 Este 0 -- -- 89
2020-03-23 03:00:00 6 5 Sur 9 Sudeste 0 -- -- 91
2020-03-23 02:00:00 7.1 0 Calma 5 Sur 0 -- -- 92
2020-03-23 01:00:00 7.6 0 Calma 3 Oeste 0 -- -- 97
2020-03-23 00:00:00 7.8 3 Noroeste 6 Norte 0 -- -- 96
2020-03-22 23:00:00 7.8 0 Calma 5 Noroeste 0 -- -- 96
2020-03-22 22:00:00 8.1 3 Noroeste 9 Norte 0 -- -- 95
2020-03-22 21:00:00 8.1 5 Norte 10 Noroeste 0 -- -- 96
2020-03-22 20:00:00 8.6 3 Noroeste 13 Noroeste 0 -- -- 94
2020-03-22 19:00:00 9.5 9 Noroeste 20 Noroeste 0 -- -- 91
2020-03-22 18:00:00 10.7 13 Noroeste 22 Noroeste 0 -- -- 88
2020-03-22 17:00:00 11.8 13 Noroeste 20 Noroeste 0 -- -- 83
2020-03-22 16:00:00 11.6 6 Norte 13 Noroeste 0 -- -- 83
2020-03-22 15:00:00 11.4 6 Noroeste 12 Noroeste 0 -- -- 82
2020-03-22 14:00:00 10.4 9 Noroeste 16 Noroeste 0 -- -- 87
2020-03-22 13:00:00 10.6 8 Noroeste 13 Noroeste 0 -- -- 88
2020-03-22 12:00:00 10 5 Noroeste 9 Norte 0 -- -- 87
2020-03-22 11:00:00 8.5 2 Sudoeste 6 Sur 0 -- -- 92
2020-03-22 10:00:00 7.4 0 Calma 5 Sur 0 -- -- 100
2020-03-22 09:00:00 6.2 4 Sur 11 Sudeste 0 -- -- 100
2020-03-22 08:00:00 5.5 4 Sur 7 Sur 0 -- -- 100
2020-03-22 07:00:00 4.5 0 Calma 7 Noroeste 0 -- -- 98
2020-03-22 06:00:00 5.1 4 Sudeste 9 Noroeste 0 -- -- 98
2020-03-22 05:00:00 6.6 3 Sudeste 5 Este 0 -- -- 90
2020-03-22 04:00:00 5.5 0 Calma 5 Sudeste 0 -- -- 96
2020-03-22 03:00:00 5.5 3 Sudeste 6 Sur 0 -- -- 99
2020-03-22 02:00:00 5.7 3 Noroeste 5 Noroeste 0 -- -- 96
2020-03-22 01:00:00 6 3 Sudeste 5 Noroeste 0 -- -- 99
2020-03-22 00:00:00 6.7 0 Calma 5 Sudoeste 0 -- -- 95
2020-03-21 23:00:00 7.7 0 Calma 4 Sur 0 -- -- 91
2020-03-21 22:00:00 8.3 0 Calma 4 Este 0 -- -- 91
2020-03-21 21:00:00 9.4 0 Calma 5 Este 0 -- -- 87
2020-03-21 20:00:00 10.5 2 Sudeste 6 Norte 0 -- -- 85
2020-03-21 19:00:00 13.4 4 Noroeste 13 Noroeste 0 -- -- 78
2020-03-21 18:00:00 15.4 10 Noroeste 15 Noroeste 0 -- -- 70
2020-03-21 17:00:00 15.8 7 Noroeste 17 Noroeste 0 -- -- 63
2020-03-21 16:00:00 16.5 7 Noroeste 17 Oeste 0 -- -- 58
2020-03-21 15:00:00 16.7 11 Noroeste 19 Noroeste 0 -- -- 58
2020-03-21 14:00:00 16.8 10 Noroeste 18 Noroeste 0 -- -- 63
2020-03-21 13:00:00 15.9 10 Noroeste 19 Noroeste 0 -- -- 62
2020-03-21 12:00:00 15.4 4 Sudeste 22 Sur 0 -- -- 56
2020-03-21 11:00:00 13.6 14 Sur 29 Sur 0 -- -- 64
2020-03-21 10:00:00 12.2 15 Sur 28 Sur 0 -- -- 67
2020-03-21 09:00:00 10.7 13 Sur 40 Sur 0 -- -- 69
2020-03-21 08:00:00 10.4 18 Sur 31 Sur 0 -- -- 70
2020-03-21 07:00:00 11.1 17 Sur 34 Sur 0 -- -- 67
2020-03-21 06:00:00 10.6 4 Nordeste 22 Sur 0 -- -- 67
2020-03-21 05:00:00 12.2 9 Sur 28 Sur 0 -- -- 61
2020-03-21 04:00:00 11.4 15 Sur 31 Sur 0 -- -- 66
2020-03-21 03:00:00 12.2 14 Sudeste 27 Sudeste 0 -- -- 63
2020-03-21 02:00:00 12.6 12 Sudeste 30 Sudeste 0 -- -- 62
2020-03-21 01:00:00 13.1 8 Sudeste 31 Sur 0 -- -- 60
2020-03-21 00:00:00 13 12 Sudeste 38 Este 0 -- -- 61
2020-03-20 23:00:00 13.1 18 Sudeste 43 Sudeste 0 -- -- 62
2020-03-20 22:00:00 12.9 23 Sudeste 43 Este 0 -- -- 63
2020-03-20 21:00:00 13.5 12 Sudeste 32 Sudeste 0 -- -- 59
2020-03-20 20:00:00 13.1 14 Sudeste 25 Sudeste 0 -- -- 61
2020-03-20 19:00:00 14.1 14 Sudeste 33 Sudeste 0 -- -- 59
2020-03-20 18:00:00 14.2 6 Sudeste 23 Sudeste 0 -- -- 60
2020-03-20 17:00:00 14.5 9 Sudeste 32 Sudeste 0 -- -- 59
2020-03-20 16:00:00 14.2 7 Sur 19 Sudeste 0 -- -- 60
2020-03-20 15:00:00 14.4 10 Sudeste 26 Sudeste 0 -- -- 56
2020-03-20 14:00:00 13.8 12 Sudeste 45 Sudeste 0 -- -- 56
2020-03-20 13:00:00 12.5 22 Sur 47 Sudeste 0 -- -- 53
2020-03-20 12:00:00 13.6 23 Sur 48 Sur 0 -- -- 46
2020-03-20 11:00:00 13.2 20 Sur 43 Sur 0 -- -- 45
2020-03-20 10:00:00 12.6 19 Sudeste 46 Este 0 -- -- 47
2020-03-20 09:00:00 12.4 14 Sudeste 41 Este 0 -- -- 54
2020-03-20 08:00:00 12.1 14 Sur 43 Sudoeste 0 -- -- 55
2020-03-20 07:00:00 12.1 17 Sur 47 Sur 0 -- -- 58
2020-03-20 06:00:00 12.1 27 Sur 48 Sur 0 -- -- 58
2020-03-20 05:00:00 12.4 16 Sur 46 Sur 0 -- -- 56
2020-03-20 04:00:00 13.1 20 Sudeste 35 Sudeste 0 -- -- 54
2020-03-20 03:00:00 13.3 18 Sudeste 35 Sudeste 0 -- -- 54
2020-03-20 02:00:00 13.5 14 Sudeste 30 Sur 0 -- -- 55
2020-03-20 01:00:00 14 14 Sudeste 29 Sudeste 0 -- -- 52
2020-03-20 00:00:00 14 19 Sudeste 36 Sudeste 0 -- -- 52
2020-03-19 23:00:00 14.4 27 Sur 49 Sur 0 -- -- 50
2020-03-19 22:00:00 14.5 22 Sur 37 Sur 0 -- -- 57
2020-03-19 21:00:00 14.8 16 Sudeste 32 Sudeste 0 -- -- 52
2020-03-19 20:00:00 14.9 19 Sudeste 32 Sudeste 0 -- -- 55
2020-03-19 19:00:00 15.8 17 Sudeste 36 Sudeste 0 -- -- 51
2020-03-19 18:00:00 17 15 Sur 24 Sudeste 0 -- -- 50
2020-03-19 17:00:00 18.3 12 Sudeste 23 Sudeste 0 -- -- 45
2020-03-19 16:00:00 18.9 9 Sur 25 Sudeste 0 -- -- 47
2020-03-19 15:00:00 19 12 Sudeste 26 Sur 0 -- -- 47
2020-03-19 14:00:00 19.2 13 Sudeste 22 Sur 0 -- -- 46
2020-03-19 13:00:00 19 8 Sur 22 Sur 0 -- -- 38
2020-03-19 12:00:00 18.3 9 Sur 16 Sur 0 -- -- 38
2020-03-19 11:00:00 17.4 8 Sur 21 Sudeste 0 -- -- 45
2020-03-19 10:00:00 16.4 6 Sudeste 17 Sudeste 0 -- -- 48
2020-03-19 09:00:00 14.9 6 Sudeste 14 Sudeste 0 -- -- 55
2020-03-19 08:00:00 13.4 6 Sudeste 12 Sur 0 -- -- 61
2020-03-19 07:00:00 13.2 8 Sudeste 14 Este 0 -- -- 61
2020-03-19 06:00:00 12.5 5 Sudeste 12 Sudeste 0 -- -- 66
2020-03-19 05:00:00 12.2 5 Sudeste 10 Este 0 -- -- 68
2020-03-19 04:00:00 12 3 Nordeste 6 Nordeste 0 -- -- 69
2020-03-19 03:00:00 12 0 Calma 6 Nordeste 0 -- -- 68
2020-03-19 02:00:00 13.4 2 Nordeste 8 Nordeste 0 -- -- 62
2020-03-19 01:00:00 13.5 2 Nordeste 7 Nordeste 0 -- -- 62
2020-03-19 00:00:00 12.8 2 Sudeste 7 Nordeste 0 -- -- 67
2020-03-18 23:00:00 11.6 3 Sudeste 5 Sudeste 0 -- -- 79
2020-03-18 22:00:00 11.1 2 Sudeste 4 Sudeste 0 -- -- 85
2020-03-18 21:00:00 11.1 0 Calma 5 Este 0 -- -- 89
2020-03-18 20:00:00 11.8 0 Calma 0 Calma 0 -- -- 92
2020-03-18 19:00:00 13.8 0 Calma 8 Noroeste 0 -- -- 87
2020-03-18 18:00:00 15.7 3 Noroeste 8 Noroeste 0 -- -- 78
2020-03-18 17:00:00 16.5 6 Noroeste 14 Norte 0 -- -- 74
2020-03-18 16:00:00 17.4 7 Noroeste 13 Noroeste 0 -- -- 68
2020-03-18 15:00:00 17.9 7 Noroeste 10 Noroeste 0 -- -- 64
2020-03-18 14:00:00 16.6 5 Noroeste 13 Noroeste 0 -- -- 69
2020-03-18 13:00:00 15.4 6 Noroeste 13 Noroeste 0 -- -- 69
2020-03-18 12:00:00 15.3 0 Calma 7 Noroeste 0 -- -- 64
2020-03-18 11:00:00 13.5 0 Calma 10 Noroeste 0 -- -- 72
2020-03-18 10:00:00 11.9 0 Calma 8 Noroeste 0 -- -- 78
2020-03-18 09:00:00 10.2 0 Calma 8 Sudeste 0 -- -- 81
2020-03-18 08:00:00 8.6 3 Sudeste 8 Sudeste 0 -- -- 82
2020-03-18 07:00:00 8.2 0 Calma 8 Este 0 -- -- 82
2020-03-18 06:00:00 8.6 2 Sudeste 6 Este 0 -- -- 80
2020-03-18 05:00:00 8.8 2 Sudeste 6 Sur 0 -- -- 81
2020-03-18 04:00:00 8.6 2 Sudeste 4 Sur 0 -- -- 83
2020-03-18 03:00:00 8.2 0 Calma 10 Sudeste 0 -- -- 86
2020-03-18 02:00:00 7.8 0 Calma 6 Sur 0 -- -- 89
2020-03-18 01:00:00 7.5 4 Sudeste 8 Sudeste 0 -- -- 92
2020-03-18 00:00:00 8.1 5 Noroeste 27 Sudeste 0 -- -- 91
2020-03-17 23:00:00 10.5 7 Noroeste 24 Sudoeste 0 -- -- 78
2020-03-17 22:00:00 7.9 10 Noroeste 22 Norte 0 -- -- 96
2020-03-17 21:00:00 8 5 Norte 14 Noroeste 0 -- -- 97
2020-03-17 20:00:00 7.5 2 Norte 10 Noroeste 0 -- -- 98
2020-03-17 19:00:00 8.9 5 Sur 28 Sudeste 0 -- -- 94
2020-03-17 18:00:00 9.8 10 Oeste 36 Sur 0 -- -- 88
2020-03-17 17:00:00 9 9 Noroeste 14 Noroeste 0 -- -- 96
2020-03-17 16:00:00 9.2 6 Noroeste 12 Noroeste 0 -- -- 95
2020-03-17 15:00:00 8.9 0 Calma 8 Norte 0 -- -- 95
2020-03-17 14:00:00 8.1 0 Calma 8 Noroeste 0 -- -- 99
2020-03-17 13:00:00 7.7 4 Norte 10 Noroeste 0 -- -- 99
2020-03-17 12:00:00 7.7 2 Noroeste 7 Noroeste 0 -- -- 97
2020-03-17 11:00:00 7.1 0 Calma 4 Sudeste 0 -- -- 100
2020-03-17 10:00:00 6.1 0 Calma 6 Este 0 -- -- 100
2020-03-17 09:00:00 5.5 3 Norte 7 Norte 0 -- -- 100
2020-03-17 08:00:00 5 0 Calma 8 Sudeste 0 -- -- 99
2020-03-17 07:00:00 4.7 3 Sudeste 7 Sudeste 0.2 -- -- 100
2020-03-17 06:00:00 4.7 4 Sudeste 6 Sudeste 0.2 -- -- 100
2020-03-17 05:00:00 4.6 0 Calma 6 Sudeste 0.2 -- -- 100
2020-03-17 04:00:00 4.4 2 Sur 5 Sur 0.6 -- -- 100
2020-03-17 03:00:00 4.5 2 Sur 4 Sudeste 1.2 -- -- 100
2020-03-17 02:00:00 4.9 2 Noroeste 9 Noroeste 1.4 -- -- 100
2020-03-17 01:00:00 4.9 2 Norte 9 Norte 1.2 -- -- 100
2020-03-17 00:00:00 5 5 Noroeste 16 Noroeste 0.2 -- -- 100
2020-03-16 23:00:00 5 6 Noroeste 22 Noroeste 0.4 -- -- 98
2020-03-16 22:00:00 4.9 11 Noroeste 21 Noroeste 1.4 -- -- 100
2020-03-16 21:00:00 4.9 9 Norte 24 Norte 1.6 -- -- 99
2020-03-16 20:00:00 4.9 13 Noroeste 34 Noroeste 2.4 -- -- 100
2020-03-16 19:00:00 4.9 11 Noroeste 25 Noroeste 1.6 -- -- 100
2020-03-16 18:00:00 5.1 12 Noroeste 23 Noroeste 1.2 -- -- 100
2020-03-16 17:00:00 5.2 13 Noroeste 33 Noroeste 2 -- -- 100
2020-03-16 16:00:00 5.2 13 Noroeste 31 Norte 4 -- -- 97
2020-03-16 15:00:00 4.6 13 Noroeste 28 Norte 6.8 -- -- 94
2020-03-16 14:00:00 4.3 18 Noroeste 33 Noroeste 6.8 -- -- 94
2020-03-16 13:00:00 4.3 14 Noroeste 31 Noroeste 5 -- -- 93
2020-03-16 12:00:00 3.6 9 Norte 44 Norte 6.6 -- -- 94
2020-03-16 11:00:00 3.2 17 Noroeste 34 Noroeste 7.6 -- -- 96
2020-03-16 10:00:00 2.3 9 Norte 26 Norte 6.2 -- -- 100
2020-03-16 09:00:00 1.2 0 Calma 0 Calma 3.2 -- -- 100
2020-03-16 08:00:00 0.4 0 Calma 0 Calma 0.4 -- -- 100
2020-03-16 07:00:00 0.2 0 Calma 0 Calma 0.6 -- -- 100
2020-03-16 06:00:00 0.2 0 Calma 2 Norte 0 -- -- 100
2020-03-16 05:00:00 0.3 0 Calma 3 Sur 0.2 -- -- 100
2020-03-16 04:00:00 0.4 0 Calma 4 Sur 0.6 -- -- 100
2020-03-16 03:00:00 0.6 0 Calma 3 Este 0.2 -- -- 99
2020-03-16 02:00:00 0.9 0 Calma 10 Nordeste 1.8 -- -- 97
2020-03-16 01:00:00 2 6 Norte 12 Norte 2 -- -- 98
2020-03-16 00:00:00 2.5 7 Norte 18 Noroeste 1.8 -- -- 97
2020-03-15 23:00:00 2.9 8 Norte 23 Noroeste 0.4 -- -- 97
2020-03-15 22:00:00 3.3 11 Noroeste 21 Noroeste 0.8 -- -- 98
2020-03-15 21:00:00 3.7 11 Noroeste 22 Noroeste 2.6 -- -- 97
2020-03-15 20:00:00 4.6 12 Noroeste 47 Norte 1.2 -- -- 96
2020-03-15 19:00:00 6.7 6 Noroeste 18 Noroeste 0.6 -- -- 95
2020-03-15 18:00:00 8 2 Oeste 7 Noroeste 0.4 -- -- 86
2020-03-15 17:00:00 7.9 2 Sur 15 Noroeste 0 -- -- 86
2020-03-15 16:00:00 7.9 7 Noroeste 15 Noroeste 0 -- -- 92
2020-03-15 15:00:00 8.7 11 Noroeste 21 Noroeste 0 -- -- 91
2020-03-15 14:00:00 11.2 10 Noroeste 25 Noroeste 0 -- -- 85
2020-03-15 13:00:00 12.4 14 Noroeste 25 Noroeste 0 -- -- 80
2020-03-15 12:00:00 13 11 Noroeste 18 Noroeste 0 -- -- 67
2020-03-15 11:00:00 13.8 12 Noroeste 23 Sudeste 0 -- -- 56
2020-03-15 10:00:00 14.9 12 Sudeste 32 Sudeste 0 -- -- 40
2020-03-15 09:00:00 10.8 6 Sudeste 18 Este 0 -- -- 49
2020-03-15 08:00:00 12.2 8 Este 17 Oeste 0 -- -- 46
2020-03-15 07:00:00 12.8 7 Este 22 Este 0 -- -- 45
2020-03-15 06:00:00 12.9 9 Este 17 Este 0 -- -- 45
2020-03-15 05:00:00 12.7 6 Este 22 Sudeste 0 -- -- 45
2020-03-15 04:00:00 10.7 7 Sudeste 15 Este 0 -- -- 42
2020-03-15 03:00:00 11.1 6 Sudeste 11 Sudeste 0 -- -- 39
2020-03-15 02:00:00 10 3 Este 14 Sudeste 0 -- -- 51
2020-03-15 01:00:00 11.1 7 Sudeste 14 Sudeste 0 -- -- 55
2020-03-15 00:00:00 7.7 3 Sudeste 8 Sudeste 0 -- -- 72
2020-03-14 23:00:00 6.3 0 Calma 6 Este 0 -- -- 81
2020-03-14 22:00:00 5.6 0 Calma 4 Este 0 -- -- 91
2020-03-14 21:00:00 5.7 0 Calma 10 Sudeste 0 -- -- 94
2020-03-14 20:00:00 6.5 0 Calma 4 Sudeste 0 -- -- 91
2020-03-14 19:00:00 8.7 4 Sur 6 Sur 0 -- -- 87
2020-03-14 18:00:00 12.1 3 Noroeste 13 Noroeste 0 -- -- 77
2020-03-14 17:00:00 12.9 9 Noroeste 15 Noroeste 0 -- -- 74
2020-03-14 16:00:00 13 10 Noroeste 17 Noroeste 0 -- -- 73
2020-03-14 15:00:00 12.9 9 Noroeste 15 Noroeste 0 -- -- 68
2020-03-14 14:00:00 12 5 Noroeste 14 Noroeste 0 -- -- 65
2020-03-14 13:00:00 10.9 6 Oeste 13 Noroeste 0 -- -- 68
2020-03-14 12:00:00 9.6 6 Noroeste 13 Noroeste 0 -- -- 69
2020-03-14 11:00:00 8.9 4 Sudeste 8 Este 0 -- -- 72
2020-03-14 10:00:00 5.9 5 Sudeste 10 Sur 0 -- -- 82
2020-03-14 09:00:00 3.8 4 Sudeste 10 Sur 0 -- -- 86
2020-03-14 08:00:00 4.8 4 Sur 10 Sur 0 -- -- 86
2020-03-14 07:00:00 4.6 6 Sur 10 Sur 0 -- -- 85
2020-03-14 06:00:00 5 3 Sudeste 7 Sudeste 0 -- -- 86
2020-03-14 05:00:00 5.2 4 Sudeste 12 Sudeste 0 -- -- 87
2020-03-14 04:00:00 4.2 8 Sudeste 13 Sudeste 0 -- -- 83
2020-03-14 03:00:00 3.6 3 Sudeste 13 Sur 0 -- -- 83
2020-03-14 02:00:00 3.5 4 Sudeste 12 Sur 0 -- -- 83
2020-03-14 01:00:00 3.6 7 Sudeste 14 Sudeste 0 -- -- 80
2020-03-14 00:00:00 3.5 4 Sudeste 13 Sudeste 0 -- -- 84
2020-03-13 23:00:00 3.4 4 Sudeste 14 Sudeste 0 -- -- 88
2020-03-13 22:00:00 3.9 4 Sudeste 11 Sudeste 0 -- -- 88
2020-03-13 21:00:00 4 4 Sudeste 8 Sudeste 0 -- -- 88
2020-03-13 20:00:00 4.8 2 Sudeste 10 Sur 0 -- -- 87
2020-03-13 19:00:00 6.4 3 Este 10 Norte 0 -- -- 87
2020-03-13 18:00:00 8.6 5 Noroeste 18 Noroeste 0 -- -- 77
2020-03-13 17:00:00 9.8 10 Noroeste 20 Noroeste 0 -- -- 75
2020-03-13 16:00:00 8.3 12 Noroeste 18 Noroeste 0 -- -- 83
2020-03-13 15:00:00 8.7 9 Noroeste 17 Noroeste 0 -- -- 86
2020-03-13 14:00:00 7.8 12 Noroeste 20 Noroeste 0 -- -- 89
2020-03-13 13:00:00 7.9 3 Noroeste 13 Norte 0 -- -- 85
2020-03-13 12:00:00 7.2 5 Noroeste 16 Noroeste 0 -- -- 96
2020-03-13 11:00:00 6.8 6 Noroeste 12 Norte 0.2 -- -- 100
2020-03-13 10:00:00 6.1 6 Noroeste 11 Noroeste 0.2 -- -- 100
2020-03-13 09:00:00 5.8 3 Noroeste 7 Noroeste 0.2 -- -- 100
2020-03-13 08:00:00 5.4 3 Noroeste 9 Oeste 0.2 -- -- 100
2020-03-13 07:00:00 5.4 5 Oeste 12 Noroeste 0.2 -- -- 100
2020-03-13 06:00:00 5.5 5 Noroeste 14 Noroeste 0 -- -- 100
2020-03-13 05:00:00 5.8 7 Noroeste 13 Noroeste 0.2 -- -- 100
2020-03-13 04:00:00 6 5 Noroeste 13 Noroeste 0.2 -- -- 100
2020-03-13 03:00:00 6.1 3 Noroeste 8 Noroeste 0.2 -- -- 100
2020-03-13 02:00:00 6.1 3 Noroeste 11 Norte 0.2 -- -- 100
2020-03-13 01:00:00 6.2 5 Noroeste 11 Noroeste 0 -- -- 100
2020-03-13 00:00:00 6.5 8 Noroeste 12 Noroeste 0 -- -- 100
2020-03-12 23:00:00 6.7 5 Noroeste 10 Noroeste 0.2 -- -- 100
2020-03-12 22:00:00 6.7 5 Norte 10 Noroeste 0.2 -- -- 100
2020-03-12 21:00:00 6.8 5 Norte 10 Norte 0.4 -- -- 100
2020-03-12 20:00:00 6.7 7 Noroeste 10 Norte 0.2 -- -- 100
2020-03-12 19:00:00 6.9 7 Noroeste 21 Noroeste 0.2 -- -- 100
2020-03-12 18:00:00 7.7 14 Noroeste 22 Noroeste 0.4 -- -- 100
2020-03-12 17:00:00 8.8 5 Noroeste 13 Noroeste 0 -- -- 100
2020-03-12 16:00:00 8.8 9 Noroeste 15 Noroeste 0 -- -- 100
2020-03-12 15:00:00 9.6 9 Noroeste 14 Noroeste 0 -- -- 98
2020-03-12 14:00:00 9.8 6 Norte 9 Norte 0 -- -- 96
2020-03-12 13:00:00 9.4 5 Norte 11 Noroeste 0 -- -- 99
2020-03-12 12:00:00 10 5 Noroeste 9 Noroeste 0 -- -- 96
2020-03-12 11:00:00 9.5 3 Norte 9 Norte 0 -- -- 96
2020-03-12 10:00:00 9.4 6 Noroeste 10 Noroeste 0 -- -- 98
2020-03-12 09:00:00 8.7 0 Calma 3 Sur 0 -- -- 100
2020-03-12 08:00:00 8.4 0 Calma 0 Calma 0 -- -- 100
2020-03-12 07:00:00 8.3 0 Calma 3 Nordeste 0.2 -- -- 100
2020-03-12 06:00:00 8.2 0 Calma 5 Noroeste 0 -- -- 100
2020-03-12 05:00:00 8.3 0 Calma 2 Sudeste 0.2 -- -- 100
2020-03-12 04:00:00 8.2 3 Sur 5 Sur 0 -- -- 100
2020-03-12 03:00:00 8.2 0 Calma 5 Noroeste 0.2 -- -- 100
2020-03-12 02:00:00 8.6 4 Norte 6 Norte 0 -- -- 100
2020-03-12 01:00:00 9.4 4 Noroeste 9 Noroeste 0 -- -- 98
2020-03-12 00:00:00 10 0 Calma 8 Sur 0 -- -- 96
2020-03-11 23:00:00 10.3 0 Calma 5 Este 0 -- -- 92
2020-03-11 22:00:00 10.7 2 Sudeste 8 Sur 0 -- -- 92
2020-03-11 21:00:00 11.3 2 Norte 12 Sudeste 0 -- -- 90
2020-03-11 20:00:00 12.1 5 Sudeste 8 Sudeste 0 -- -- 91
2020-03-11 19:00:00 13.5 0 Calma 10 Noroeste 0 -- -- 85
2020-03-11 18:00:00 16.5 6 Noroeste 13 Noroeste 0 -- -- 75
2020-03-11 17:00:00 18.2 9 Noroeste 13 Noroeste 0 -- -- 72
2020-03-11 16:00:00 18.5 10 Noroeste 17 Noroeste 0 -- -- 71
2020-03-11 15:00:00 18.6 9 Noroeste 15 Noroeste 0 -- -- 64
2020-03-11 14:00:00 17.7 8 Noroeste 14 Noroeste 0 -- -- 65
2020-03-11 13:00:00 16.5 7 Noroeste 10 Noroeste 0 -- -- 67
2020-03-11 12:00:00 15 4 Noroeste 9 Noroeste 0 -- -- 67
2020-03-11 11:00:00 13.4 5 Noroeste 8 Noroeste 0 -- -- 71
2020-03-11 10:00:00 11.4 0 Calma 5 Sudeste 0 -- -- 80
2020-03-11 09:00:00 7.8 3 Sur 6 Este 0 -- -- 83
2020-03-11 08:00:00 7.2 3 Sudeste 6 Sudeste 0 -- -- 84
2020-03-11 07:00:00 7.5 0 Calma 7 Sudeste 0 -- -- 81
2020-03-11 06:00:00 7.2 4 Sudeste 6 Sudeste 0 -- -- 87
2020-03-11 05:00:00 7.2 0 Calma 9 Sudeste 0 -- -- 86
2020-03-11 04:00:00 7.4 3 Sudeste 10 Sudeste 0 -- -- 85
2020-03-11 03:00:00 7.2 2 Sudeste 8 Sur 0 -- -- 86
2020-03-11 02:00:00 8.3 2 Norte 18 Sudeste 0 -- -- 80
2020-03-11 01:00:00 8.2 6 Sudeste 15 Sudeste 0 -- -- 83
2020-03-11 00:00:00 7.1 4 Sudeste 10 Sudeste 0 -- -- 84
2020-03-10 23:00:00 7.9 4 Sudeste 11 Sudeste 0 -- -- 77
2020-03-10 22:00:00 7.4 3 Sudeste 10 Sudeste 0 -- -- 81
2020-03-10 21:00:00 8.9 6 Sudeste 12 Sudeste 0 -- -- 88
2020-03-10 20:00:00 9.4 3 Sudeste 5 Sudeste 0 -- -- 94
2020-03-10 19:00:00 11.3 0 Calma 6 Noroeste 0 -- -- 88
2020-03-10 18:00:00 12.6 3 Noroeste 11 Noroeste 0 -- -- 83
2020-03-10 17:00:00 13.2 7 Noroeste 17 Noroeste 0 -- -- 84
2020-03-10 16:00:00 13.9 10 Noroeste 18 Norte 0 -- -- 80
2020-03-10 15:00:00 14.2 9 Noroeste 19 Noroeste 0 -- -- 78
2020-03-10 14:00:00 14.7 6 Sudeste 19 Noroeste 0 -- -- 72
2020-03-10 13:00:00 13.8 13 Noroeste 20 Noroeste 0 -- -- 69
2020-03-10 12:00:00 11.8 3 Noroeste 17 Noroeste 0 -- -- 69
2020-03-10 11:00:00 11.9 0 Calma 7 Noroeste 0 -- -- 66
2020-03-10 10:00:00 13.6 2 Sudeste 15 Sudeste 0 -- -- 55
2020-03-10 09:00:00 12.5 10 Sudeste 16 Sudeste 0 -- -- 41
2020-03-10 08:00:00 10.5 10 Sudeste 17 Sudeste 0 -- -- 48
2020-03-10 07:00:00 10 9 Sur 20 Sudeste 0 -- -- 43
2020-03-10 06:00:00 9.8 9 Sudeste 21 Sudeste 0 -- -- 42
2020-03-10 05:00:00 9.2 10 Sudeste 16 Sudeste 0 -- -- 45
2020-03-10 04:00:00 8.4 4 Sur 18 Sur 0 -- -- 54
2020-03-10 03:00:00 9 10 Sudeste 16 Sudeste 0 -- -- 48
2020-03-10 02:00:00 8.1 7 Sur 15 Sudeste 0 -- -- 56
2020-03-10 01:00:00 8.1 8 Sudeste 15 Sudeste 0 -- -- 56
2020-03-10 00:00:00 6.7 5 Sur 15 Este 0 -- -- 69
2020-03-09 23:00:00 5.2 4 Sudeste 14 Sudeste 0 -- -- 87
2020-03-09 22:00:00 4.5 0 Calma 10 Sudeste 0 -- -- 91
2020-03-09 21:00:00 4.6 0 Calma 12 Sudeste 0 -- -- 90
2020-03-09 20:00:00 5.3 2 Sudeste 7 Norte 0 -- -- 88
2020-03-09 19:00:00 6.9 4 Norte 15 Norte 0 -- -- 85
2020-03-09 18:00:00 7.4 9 Norte 22 Noroeste 0 -- -- 84
2020-03-09 17:00:00 7.3 10 Norte 27 Noroeste 0 -- -- 82
2020-03-09 16:00:00 7.5 15 Noroeste 27 Noroeste 0 -- -- 81
2020-03-09 15:00:00 7.8 15 Norte 29 Norte 0 -- -- 77
2020-03-09 14:00:00 7.1 14 Norte 33 Noroeste 0 -- -- 82
2020-03-09 13:00:00 7 17 Noroeste 32 Noroeste 0 -- -- 83
2020-03-09 12:00:00 6.3 11 Noroeste 32 Norte 0.2 -- -- 89
2020-03-09 11:00:00 6 11 Noroeste 37 Norte 0.2 -- -- 89
2020-03-09 10:00:00 5.8 13 Noroeste 24 Norte 0 -- -- 91
2020-03-09 09:00:00 5.5 15 Noroeste 35 Noroeste 0.2 -- -- 93
2020-03-09 08:00:00 5.5 13 Noroeste 40 Noroeste 0 -- -- 93
2020-03-09 07:00:00 5.6 19 Noroeste 45 Norte 0.2 -- -- 93
2020-03-09 06:00:00 5.5 12 Noroeste 31 Norte 0 -- -- 94
2020-03-09 05:00:00 5.5 10 Noroeste 37 Noroeste 0.2 -- -- 93
2020-03-09 04:00:00 5.7 10 Noroeste 35 Noroeste 0.2 -- -- 94
2020-03-09 03:00:00 5.7 18 Noroeste 47 Norte 1 -- -- 91
2020-03-09 02:00:00 5.6 21 Noroeste 47 Norte 0 -- -- 94
2020-03-09 01:00:00 5.6 25 Noroeste 56 Noroeste 1 -- -- 93
2020-03-09 00:00:00 5.7 19 Noroeste 49 Noroeste 2 -- -- 95
2020-03-08 23:00:00 6.9 14 Norte 35 Noroeste 0 -- -- 90
2020-03-08 22:00:00 6.9 5 Noroeste 35 Noroeste 0 -- -- 89
2020-03-08 21:00:00 7 7 Noroeste 35 Norte 0.4 -- -- 93
2020-03-08 20:00:00 7 5 Norte 29 Norte 1.4 -- -- 94
2020-03-08 19:00:00 7.6 11 Noroeste 33 Noroeste 2 -- -- 97
2020-03-08 18:00:00 7.9 4 Norte 22 Noroeste 0 -- -- 93
2020-03-08 17:00:00 9.3 12 Norte 29 Noroeste 0 -- -- 89
2020-03-08 16:00:00 14.1 9 Noroeste 17 Noroeste 0 -- -- 64
2020-03-08 15:00:00 14.1 8 Noroeste 16 Noroeste 0 -- -- 57
2020-03-08 14:00:00 13.7 8 Noroeste 19 Norte 0 -- -- 61
2020-03-08 13:00:00 13 8 Norte 17 Noroeste 0 -- -- 61
2020-03-08 12:00:00 12.6 5 Sur 17 Sur 0 -- -- 57
2020-03-08 11:00:00 12 4 Norte 13 Noroeste 0 -- -- 54
2020-03-08 10:00:00 9.8 8 Sudeste 15 Sudeste 0 -- -- 57
2020-03-08 09:00:00 8.3 8 Sudeste 15 Sudeste 0 -- -- 66
2020-03-08 08:00:00 6.6 5 Este 10 Este 0 -- -- 74
2020-03-08 07:00:00 6.2 8 Sudeste 11 Sur 0 -- -- 77
2020-03-08 06:00:00 5.9 4 Este 11 Este 0 -- -- 76
2020-03-08 05:00:00 5.6 4 Sudeste 15 Sudeste 0 -- -- 74
2020-03-08 04:00:00 4.9 3 Sudeste 19 Sudeste 0 -- -- 79
2020-03-08 03:00:00 5.6 7 Sudeste 13 Sudeste 0 -- -- 77
2020-03-08 02:00:00 5.6 7 Sudeste 14 Sudeste 0 -- -- 75
2020-03-08 01:00:00 3.9 2 Sudeste 6 Sur 0 -- -- 84
2020-03-08 00:00:00 3.2 0 Calma 9 Este 0 -- -- 92
2020-03-07 23:00:00 3.5 5 Sudeste 11 Sudeste 0 -- -- 91
2020-03-07 22:00:00 3.8 2 Sur 13 Sudeste 0 -- -- 89
2020-03-07 21:00:00 3.6 4 Sudeste 9 Sudeste 0 -- -- 91
2020-03-07 20:00:00 4.2 2 Sudeste 11 Sudeste 0 -- -- 89
2020-03-07 19:00:00 5.8 5 Sudeste 10 Sur 0 -- -- 85
2020-03-07 18:00:00 8 4 Noroeste 12 Noroeste 0 -- -- 78
2020-03-07 17:00:00 8.5 4 Noroeste 17 Noroeste 0 -- -- 74
2020-03-07 16:00:00 8.8 9 Noroeste 23 Noroeste 0 -- -- 76
2020-03-07 15:00:00 8.3 5 Noroeste 22 Noroeste 0 -- -- 80
2020-03-07 14:00:00 7.3 9 Norte 17 Norte 0 -- -- 89
2020-03-07 13:00:00 6.4 2 Oeste 14 Noroeste 0 -- -- 92
2020-03-07 12:00:00 5.8 13 Noroeste 35 Norte 0.8 -- -- 100
2020-03-07 11:00:00 5.6 14 Noroeste 32 Noroeste 2.2 -- -- 100
2020-03-07 10:00:00 5.8 14 Norte 24 Norte 1.8 -- -- 100
2020-03-07 09:00:00 5.4 12 Norte 30 Norte 0.4 -- -- 100
2020-03-07 08:00:00 5.4 9 Noroeste 23 Noroeste 1.4 -- -- 100
2020-03-07 07:00:00 5.3 9 Noroeste 30 Norte 0.4 -- -- 100
2020-03-07 06:00:00 5.4 14 Noroeste 28 Norte 2.6 -- -- 100
2020-03-07 05:00:00 5 12 Noroeste 28 Noroeste 1 -- -- 100
2020-03-07 04:00:00 4.7 10 Noroeste 26 Noroeste 0.2 -- -- 100
2020-03-07 03:00:00 4.3 14 Norte 26 Noroeste 2.2 -- -- 100
2020-03-07 02:00:00 3.8 14 Norte 32 Noroeste 1.6 -- -- 100
2020-03-07 01:00:00 3.7 13 Noroeste 36 Norte 0.6 -- -- 99
2020-03-07 00:00:00 3.9 21 Noroeste 41 Noroeste 0.2 -- -- 96
2020-03-06 23:00:00 3.6 22 Noroeste 44 Noroeste 0 -- -- 99
2020-03-06 22:00:00 3.2 19 Noroeste 47 Noroeste 1.8 -- -- 100
2020-03-06 21:00:00 3 15 Noroeste 50 Noroeste 1.8 -- -- 100
2020-03-06 20:00:00 2.7 17 Noroeste 40 Noroeste 2 -- -- 100
2020-03-06 19:00:00 2 16 Noroeste 51 Norte 2.6 -- -- 100
2020-03-06 18:00:00 2.1 22 Noroeste 54 Noroeste 3 -- -- 100
2020-03-06 17:00:00 1.4 26 Noroeste 53 Noroeste 3.8 -- -- 99
2020-03-06 16:00:00 1.7 18 Norte 76 Norte 1.8 -- -- 97
2020-03-06 15:00:00 2.7 27 Noroeste 67 Noroeste 1.4 -- -- 98
2020-03-06 14:00:00 3.2 25 Noroeste 72 Noroeste 0.2 -- -- 94
2020-03-06 13:00:00 2.4 29 Noroeste 63 Norte 1.2 -- -- 95
2020-03-06 12:00:00 2.5 33 Noroeste 59 Norte 2.2 -- -- 99
2020-03-06 11:00:00 1.5 25 Noroeste 65 Norte 6.6 -- -- 100
2020-03-06 10:00:00 2.2 24 Noroeste 64 Noroeste 0.6 -- -- 97
2020-03-06 09:00:00 1.4 24 Noroeste 67 Noroeste 3.4 -- -- 99
2020-03-06 08:00:00 1.1 19 Norte 50 Norte 4.4 -- -- 100
2020-03-06 07:00:00 1.3 20 Norte 73 Noroeste 3.2 -- -- 98
2020-03-06 06:00:00 2.4 25 Norte 60 Norte 2.6 -- -- 94
2020-03-06 05:00:00 4.1 32 Norte 54 Noroeste 0.2 -- -- 86
2020-03-06 04:00:00 4.7 21 Noroeste 60 Norte 0 -- -- 80
2020-03-06 03:00:00 4.8 13 Norte 45 Noroeste 0.2 -- -- 84
2020-03-06 02:00:00 6 13 Norte 32 Norte 0 -- -- 70
2020-03-06 01:00:00 6.2 9 Sudeste 30 Sudeste 0 -- -- 65
2020-03-06 00:00:00 4 5 Sur 18 Norte 0 -- -- 87
2020-03-05 23:00:00 5.3 11 Nordeste 25 Norte 0 -- -- 85
2020-03-05 22:00:00 5.1 13 Norte 29 Noroeste 0.2 -- -- 89
2020-03-05 21:00:00 5 12 Norte 33 Noroeste 0.2 -- -- 91
2020-03-05 20:00:00 5.1 17 Noroeste 45 Noroeste 0.2 -- -- 92
2020-03-05 19:00:00 5.3 19 Noroeste 43 Norte 0.2 -- -- 92
2020-03-05 18:00:00 5.1 24 Norte 49 Noroeste 1.2 -- -- 93
2020-03-05 17:00:00 5.3 19 Norte 71 Noroeste 1.4 -- -- 96
2020-03-05 16:00:00 5.5 31 Norte 60 Noroeste 1 -- -- 96
2020-03-05 15:00:00 6.5 25 Noroeste 64 Norte 0.2 -- -- 90
2020-03-05 14:00:00 7.1 27 Norte 54 Noroeste 0.2 -- -- 90
2020-03-05 13:00:00 9.1 19 Noroeste 36 Norte 0 -- -- 79
2020-03-05 12:00:00 10 13 Noroeste 30 Noroeste 0 -- -- 79
2020-03-05 11:00:00 8.1 5 Noroeste 17 Norte 0.8 -- -- 94
2020-03-05 10:00:00 7.2 3 Nordeste 6 Este 5.6 -- -- 99
2020-03-05 09:00:00 7.1 2 Noroeste 16 Norte 7.6 -- -- 98
2020-03-05 08:00:00 7.5 10 Noroeste 36 Norte 13.6 -- -- 98
2020-03-05 07:00:00 12.1 17 Sudoeste 75 Sudeste 0.2 -- -- 83
2020-03-05 06:00:00 13.4 23 Sudeste 66 Sudeste 0 -- -- 69
2020-03-05 05:00:00 13.3 17 Sudeste 64 Sur 0 -- -- 69
2020-03-05 04:00:00 13.3 18 Sudeste 41 Sur 0 -- -- 74
2020-03-05 03:00:00 13.8 15 Sudeste 48 Sudeste 0 -- -- 68
2020-03-05 02:00:00 14 11 Sur 38 Sudeste 0 -- -- 65
2020-03-05 01:00:00 13.5 12 Sur 44 Sudeste 0 -- -- 69
2020-03-05 00:00:00 14 11 Sudeste 35 Sudeste 0 -- -- 64
2020-03-04 23:00:00 13.8 6 Sur 17 Sudoeste 0 -- -- 62
2020-03-04 22:00:00 14 8 Sur 20 Sudeste 0 -- -- 59
2020-03-04 21:00:00 12.4 8 Sudeste 20 Sudeste 0 -- -- 72
2020-03-04 20:00:00 10.6 2 Norte 9 Norte 0 -- -- 91
2020-03-04 19:00:00 12 2 Noroeste 10 Norte 0 -- -- 90
2020-03-04 18:00:00 13.3 2 Oeste 12 Noroeste 0 -- -- 86
2020-03-04 17:00:00 14.7 7 Noroeste 14 Noroeste 0 -- -- 82
2020-03-04 16:00:00 16.1 8 Noroeste 14 Noroeste 0 -- -- 73
2020-03-04 15:00:00 16.6 6 Sudeste 14 Sudeste 0 -- -- 61
2020-03-04 14:00:00 16.1 4 Este 9 Norte 0 -- -- 60
2020-03-04 13:00:00 15.8 5 Norte 12 Nordeste 0 -- -- 60
2020-03-04 12:00:00 14.8 5 Noroeste 10 Noroeste 0 -- -- 65
2020-03-04 11:00:00 13.8 2 Sur 17 Norte 0 -- -- 69
2020-03-04 10:00:00 13.4 7 Nordeste 28 Norte 0 -- -- 70
2020-03-04 09:00:00 13.1 12 Norte 27 Norte 0 -- -- 69
2020-03-04 08:00:00 12.6 13 Norte 30 Norte 0 -- -- 76
2020-03-04 07:00:00 12.5 17 Norte 31 Norte 0 -- -- 78
2020-03-04 06:00:00 11.1 5 Norte 26 Este 0 -- -- 88
2020-03-04 05:00:00 9.8 9 Sur 18 Sudeste 2.4 -- -- 89
2020-03-04 04:00:00 9.3 7 Sudeste 21 Sudeste 5 -- -- 93
2020-03-04 03:00:00 8.9 5 Sudeste 10 Sur 0.4 -- -- 91
2020-03-04 02:00:00 9.1 7 Sudeste 21 Sudeste 0 -- -- 81
2020-03-04 01:00:00 8.4 8 Sudeste 16 Sudeste 0 -- -- 84
2020-03-04 00:00:00 7.7 3 Sur 9 Este 0.2 -- -- 96
2020-03-03 23:00:00 7.2 3 Sur 5 Sudeste 0.2 -- -- 100
2020-03-03 22:00:00 7.3 3 Noroeste 10 Norte 0.6 -- -- 100
2020-03-03 21:00:00 7.5 2 Noroeste 24 Norte 0.8 -- -- 99
2020-03-03 20:00:00 7.6 8 Noroeste 27 Norte 1.4 -- -- 99
2020-03-03 19:00:00 8 14 Noroeste 42 Norte 1.6 -- -- 97
2020-03-03 18:00:00 8 19 Noroeste 50 Noroeste 0 -- -- 96
2020-03-03 17:00:00 8.5 28 Noroeste 58 Norte 0 -- -- 90
2020-03-03 16:00:00 8.7 28 Noroeste 58 Noroeste 0 -- -- 90
2020-03-03 15:00:00 9.5 35 Noroeste 70 Noroeste 0 -- -- 92
2020-03-03 14:00:00 10.4 37 Norte 65 Noroeste 0 -- -- 88
2020-03-03 13:00:00 10.9 31 Norte 54 Noroeste 0 -- -- 92
2020-03-03 12:00:00 13.1 21 Noroeste 43 Nordeste 0 -- -- 72
2020-03-03 11:00:00 13.7 10 Noroeste 37 Sur 0 -- -- 64
2020-03-03 10:00:00 10.9 18 Nordeste 54 Norte 0 -- -- 71
2020-03-03 09:00:00 8.7 13 Sudeste 51 Sudeste 0.2 -- -- 72
2020-03-03 08:00:00 7 15 Sudeste 40 Sur 0 -- -- 76
2020-03-03 07:00:00 5.8 19 Sudeste 43 Sudeste 3 -- -- 79
2020-03-03 06:00:00 3.4 5 Sur 27 Sudeste 5.2 -- -- 90
2020-03-03 05:00:00 4.5 14 Sur 32 Sur 0.2 -- -- 79
2020-03-03 04:00:00 4.5 8 Sur 16 Sur 0 -- -- 72
2020-03-03 03:00:00 4.6 9 Sur 18 Sur 0 -- -- 69
2020-03-03 02:00:00 5.1 9 Sudeste 20 Sudeste 0 -- -- 64
2020-03-03 01:00:00 4.2 5 Sudeste 30 Norte 0 -- -- 76
2020-03-03 00:00:00 4.3 9 Nordeste 26 Nordeste 0 -- -- 73
2020-03-02 23:00:00 3.3 4 Este 30 Norte 0 -- -- 84
2020-03-02 22:00:00 3.2 14 Norte 33 Norte 0 -- -- 86
2020-03-02 21:00:00 2.1 15 Norte 41 Norte 1.4 -- -- 99
2020-03-02 20:00:00 1.4 14 Norte 48 Norte 1.8 -- -- 100
2020-03-02 19:00:00 2.7 25 Norte 67 Norte 0 -- -- 95
2020-03-02 18:00:00 2.7 16 Norte 49 Norte 0.4 -- -- 98
2020-03-02 17:00:00 2.4 30 Norte 56 Noroeste 1.4 -- -- 97
2020-03-02 16:00:00 1.5 22 Noroeste 67 Norte 1.6 -- -- 100
2020-03-02 15:00:00 1.2 21 Noroeste 67 Norte 2 -- -- 98
2020-03-02 14:00:00 2.6 21 Norte 63 Norte 0.4 -- -- 95
2020-03-02 13:00:00 2.1 28 Norte 58 Norte 3 -- -- 97
2020-03-02 12:00:00 0.9 14 Norte 45 Noroeste 1.6 -- -- 98
2020-03-02 11:00:00 2.4 12 Norte 60 Norte 1.2 -- -- 97
2020-03-02 10:00:00 2.4 18 Norte 46 Noroeste 1.8 -- -- 98
2020-03-02 09:00:00 2.9 28 Noroeste 50 Norte 0.4 -- -- 96
2020-03-02 08:00:00 2.8 21 Noroeste 71 Noroeste 2.4 -- -- 99
2020-03-02 07:00:00 3.9 32 Norte 70 Norte 4.2 -- -- 98
2020-03-02 06:00:00 4.5 39 Noroeste 85 Noroeste 2.8 -- -- 98
2020-03-02 05:00:00 5 22 Noroeste 66 Noroeste 3.2 -- -- 98
2020-03-02 04:00:00 6.3 24 Noroeste -- -- 7.4 -- -- 98
2020-03-02 03:00:00 11.4 27 Sudeste 65 Sudeste 1.8 -- -- 81
2020-03-02 02:00:00 12.2 31 Sudeste 91 Sudeste 0 -- -- 71
2020-03-02 01:00:00 11.6 31 Sudeste 89 Sudeste 0 -- -- 70
2020-03-02 00:00:00 10.6 34 Sudeste 75 Sudeste 0 -- -- 67
2020-03-01 23:00:00 10.6 29 Sudeste 77 Sudeste 0 -- -- 62
2020-03-01 22:00:00 11.3 14 Sur 46 Sudeste 0 -- -- 57
2020-03-01 21:00:00 11.5 18 Sudeste 43 Sur 0 -- -- 60
2020-03-01 20:00:00 11.9 17 Sudeste 33 Sudeste 0 -- -- 55
2020-03-01 19:00:00 8.7 7 Norte 14 Norte 0 -- -- 75
2020-03-01 18:00:00 9.8 6 Norte 12 Noroeste 0 -- -- 73
2020-03-01 17:00:00 10.6 9 Noroeste 20 Noroeste 0 -- -- 68
2020-03-01 16:00:00 11.8 12 Noroeste 28 Noroeste 0 -- -- 74
2020-03-01 15:00:00 13.1 19 Noroeste 38 Este 0 -- -- 71
2020-03-01 14:00:00 14 8 Noroeste 41 Sudeste 0 -- -- 64
2020-03-01 13:00:00 13 14 Sudeste 32 Sudeste 0 -- -- 57
2020-03-01 12:00:00 13.1 9 Sudeste 30 Nordeste 0 -- -- 51
2020-03-01 11:00:00 11.7 10 Sudeste 41 Sudeste 0 -- -- 53
2020-03-01 10:00:00 9.4 23 Sudeste 54 Sudeste 0 -- -- 61
2020-03-01 09:00:00 8.9 22 Sudeste 58 Sur 0 -- -- 67
2020-03-01 08:00:00 9.2 33 Sudeste 68 Sudeste 0 -- -- 62
2020-03-01 07:00:00 9.5 25 Sudeste 56 Sudeste 0 -- -- 59
2020-03-01 06:00:00 9.6 17 Sudeste 48 Sudoeste 0 -- -- 58
2020-03-01 05:00:00 9.2 19 Sudeste 45 Sudeste 0 -- -- 59
2020-03-01 04:00:00 8.4 11 Noroeste 37 Sudeste 0 -- -- 62
2020-03-01 03:00:00 8.8 13 Sudeste 41 Sudeste 0 -- -- 63
2020-03-01 02:00:00 8.9 19 Sudeste 49 Sudeste 0 -- -- 63
2020-03-01 01:00:00 8.7 12 Sudeste 49 Sudeste 0 -- -- 61
2020-03-01 00:00:00 6.3 7 Este 19 Sudeste 0 -- -- 77
2020-02-29 23:00:00 5.9 6 Sudeste 8 Sudeste 0 -- -- 94
2020-02-29 22:00:00 6.2 4 Sudeste 9 Sudeste 0 -- -- 93
2020-02-29 21:00:00 6.1 3 Este 6 Sudeste 0 -- -- 95
2020-02-29 20:00:00 6.2 2 Sudeste 4 Sudoeste 0 -- -- 94
2020-02-29 19:00:00 6.3 0 Calma 7 Noroeste 0 -- -- 95
2020-02-29 18:00:00 6.4 3 Noroeste 8 Noroeste 0 -- -- 94
2020-02-29 17:00:00 6.5 3 Sur 12 Norte 0.2 -- -- 93
2020-02-29 16:00:00 6.5 12 Noroeste 23 Noroeste 0 -- -- 91
2020-02-29 15:00:00 8.3 8 Norte 17 Norte 0 -- -- 80
2020-02-29 14:00:00 8.1 8 Noroeste 16 Norte 0 -- -- 84
2020-02-29 13:00:00 7.9 9 Noroeste 23 Noroeste 0 -- -- 87
2020-02-29 12:00:00 9.1 13 Noroeste 33 Noroeste 0 -- -- 86
2020-02-29 11:00:00 11.3 17 Norte 42 Sudeste 0 -- -- 68
2020-02-29 10:00:00 11.3 25 Sudeste 54 Sudeste 0 -- -- 63
2020-02-29 09:00:00 10.7 22 Sudeste 50 Este 0 -- -- 63
2020-02-29 08:00:00 10.1 26 Sudeste 79 Sur 0 -- -- 64
2020-02-29 07:00:00 11.3 32 Sudeste 75 Sur 0 -- -- 59
2020-02-29 06:00:00 11.1 20 Sudeste 48 Sudeste 0 -- -- 52
2020-02-29 05:00:00 11.4 17 Sudeste 50 Sudeste 0 -- -- 42
2020-02-29 04:00:00 11.7 18 Sudeste 60 Sudeste 0 -- -- 52
2020-02-29 03:00:00 12.6 15 Sur 53 Sur 0 -- -- 46
2020-02-29 02:00:00 13.3 18 Sur 64 Sudeste 0 -- -- 42
2020-02-29 01:00:00 13.7 28 Sudeste 60 Sudeste 0 -- -- 37
2020-02-29 00:00:00 14.4 19 Sur 51 Sur 0 -- -- 36
2020-02-28 23:00:00 14.6 19 Sudeste 51 Sudeste 0 -- -- 34
2020-02-28 22:00:00 14.7 19 Sudeste 48 Sudeste 0 -- -- 32
2020-02-28 21:00:00 14.8 17 Sudeste 42 Sudeste 0 -- -- 32
2020-02-28 20:00:00 14.5 19 Sudeste 40 Sudeste 0 -- -- 33
2020-02-28 19:00:00 14.6 13 Sur 36 Sudeste 0 -- -- 36
2020-02-28 18:00:00 15.4 10 Sudeste 37 Este 0 -- -- 33
2020-02-28 17:00:00 15.8 9 Nordeste 32 Sudeste 0 -- -- 35
2020-02-28 16:00:00 16.3 8 Sudeste 33 Sur 0 -- -- 29
2020-02-28 15:00:00 17.3 10 Este 21 Este 0 -- -- 30
2020-02-28 14:00:00 17.6 5 Noroeste 26 Sudoeste 0 -- -- 34
2020-02-28 13:00:00 15.8 8 Sur 19 Sudeste 0 -- -- 37
2020-02-28 12:00:00 14.7 7 Noroeste 12 Noroeste 0 -- -- 41
2020-02-28 11:00:00 14.1 7 Este 15 Nordeste 0 -- -- 33
2020-02-28 10:00:00 10.9 8 Este 12 Este 0 -- -- 50
2020-02-28 09:00:00 8.4 5 Sudeste 13 Sudeste 0 -- -- 56
2020-02-28 08:00:00 8.5 4 Sudeste 20 Sudeste 0 -- -- 59
2020-02-28 07:00:00 8 10 Sur 17 Sur 0 -- -- 61
2020-02-28 06:00:00 8.9 5 Este 17 Este 0 -- -- 62
2020-02-28 05:00:00 7.5 7 Sur 16 Sudeste 0 -- -- 73
2020-02-28 04:00:00 7.4 9 Sudeste 15 Sudeste 0 -- -- 87
2020-02-28 03:00:00 8.1 3 Sur 6 Nordeste 0 -- -- 91
2020-02-28 02:00:00 8.5 3 Nordeste 8 Norte 0 -- -- 90
2020-02-28 01:00:00 8.8 7 Norte 19 Norte 0 -- -- 90
2020-02-28 00:00:00 8.8 5 Norte 14 Norte 0 -- -- 90